Date,TemperatureHighF,TemperatureAvgF,TemperatureLowF,DewpointHighF,DewpointAvgF,DewpointLowF,HumidityHigh,HumidityAvg,HumidityLow,PressureMaxIn,PressureMinIn,WindSpeedMaxMPH,WindSpeedAvgMPH,GustSpeedMaxMPH,PrecipitationSumIn
2013-3-1,52.7,46.1,40.8,38.5,35.1,31.8,82,66,51,29.96,29.87,8,1,8,0.00
2013-3-2,51.2,44.1,37.2,38.1,34.8,31.9,86,70,49,29.94,29.85,4,1,8,0.00
2013-3-3,48.8,40.5,33.6,34.6,30.3,27.6,87,68,49,30.04,29.91,2,1,8,0.00
2013-3-4,57.0,43.9,30.6,43.8,30.6,23.7,83,62,30,30.18,30.04,2,1,8,0.00
2013-3-5,62.0,54.3,44.3,56.1,49.4,42.8,98,84,63,30.14,29.75,3,1,7,0.06
2013-3-6,56.2,47.8,40.9,55.1,34.4,25.4,96,62,41,30.08,29.73,5,3,12,0.01
2013-3-7,57.1,45.9,36.2,43.1,36.6,31.1,94,71,43,30.23,30.08,3,1,7,0.00
2013-3-8,61.2,48.3,39.6,41.1,33.6,27.9,95,60,29,30.28,30.16,3,1,8,0.00
2013-3-9,56.7,47.4,39.2,44.1,38.6,32.6,95,72,51,30.33,30.24,3,1,7,0.00
2013-3-10,64.6,52.9,41.5,50.0,44.4,40.3,98,75,46,30.29,30.21,2,1,4,0.00
2013-3-11,67.4,59.4,51.7,59.0,55.2,47.0,96,86,71,30.21,29.91,2,0,4,0.00
2013-3-12,64.7,59.7,54.1,61.1,57.6,47.2,98,93,73,29.95,29.82,2,1,7,0.05
2013-3-13,66.6,56.6,45.8,47.4,37.2,28.5,82,52,25,30.13,29.95,4,1,11,0.00
2013-3-14,57.0,47.2,38.3,38.1,27.6,22.4,80,48,28,30.32,30.10,3,1,7,0.00
2013-3-15,61.9,51.0,39.5,51.6,41.8,32.6,91,73,38,30.24,30.07,2,1,7,0.00
2013-3-16,72.1,60.1,53.7,55.7,51.4,44.1,91,74,45,30.07,29.90,3,2,7,0.00
2013-3-17,70.5,61.3,56.7,59.0,55.9,53.0,91,83,67,30.05,29.97,3,1,7,0.00
2013-3-18,63.1,60.5,58.1,60.6,58.1,56.2,96,92,85,30.08,29.86,4,1,11,0.18
2013-3-19,77.1,63.6,55.2,60.6,52.4,35.1,99,72,32,29.99,29.82,4,1,7,0.10
2013-3-20,62.5,56.6,50.3,38.3,30.7,20.0,46,38,24,30.09,29.99,4,2,9,0.00
2013-3-21,59.8,48.9,40.7,40.4,29.8,20.5,91,52,23,29.95,29.80,4,2,7,0.00
2013-3-22,52.0,46.0,39.1,43.2,32.4,21.8,83,60,46,30.10,29.95,3,1,6,0.00
2013-3-23,57.4,50.9,44.8,53.4,47.7,42.5,98,89,71,30.05,29.86,4,1,6,0.88
2013-3-24,65.9,55.6,48.4,65.5,54.5,47.0,99,96,90,29.87,29.47,5,2,8,2.08
2013-3-25,57.3,50.6,44.3,48.7,36.2,25.2,97,62,32,29.97,29.59,5,3,13,0.00
2013-3-26,51.7,44.2,36.5,33.4,28.6,25.0,69,55,41,30.19,29.97,4,2,10,0.00
2013-3-27,60.0,47.0,35.4,39.1,31.9,28.6,88,59,32,30.27,30.17,3,1,6,0.00
2013-3-28,62.1,49.8,39.8,43.7,33.6,28.4,95,58,29,30.30,30.18,3,1,6,0.01
2013-3-29,59.4,51.5,41.0,51.0,42.2,34.9,97,73,45,30.35,30.23,3,1,4,0.00
2013-3-30,67.0,58.7,52.1,55.3,52.4,49.8,94,81,57,30.25,30.09,3,1,3,0.00
2013-3-31,66.9,60.7,55.8,59.2,56.6,53.5,94,87,74,30.10,29.90,3,1,6,0.04